Time;durP1;ratioP1;P1;durP2;ratioP2;P2;SDS_P1;SDS_P2;PMS_P1;PMS_P2;Temp;Humidity;BMP_temperature;BMP_pressure;BME280_temperature;BME280_humidity;BME280_pressure;Samples;Min_cycle;Max_cycle;Signal;HPM_P1;HPM_P2
2023/12/29 00:02:02;;;;;;;71.65;48.33;;;;;;;28.89;65.28;101111.53;4957113;28;70076;-37
2023/12/29 00:04:33;;;;;;;108.78;69.90;;;;;;;28.92;75.23;101110.31;4977388;28;65346;-37
2023/12/29 00:07:03;;;;;;;120.50;77.10;;;;;;;28.90;70.45;101118.59;4968331;28;70536;-37
2023/12/29 00:09:40;;;;;;;119.50;81.07;;;;;;;28.99;70.37;101121.13;4980942;28;65382;-36
2023/12/29 00:12:11;;;;;;;120.32;80.22;;;;;;;28.93;74.91;101129.00;4955033;28;69477;-38
2023/12/29 00:14:41;;;;;;;107.72;72.53;;;;;;;28.95;74.77;101126.94;4972498;28;65353;-36
2023/12/29 00:17:11;;;;;;;102.68;63.55;;;;;;;29.00;76.20;101128.19;4953872;28;70403;-36
2023/12/29 00:19:42;;;;;;;96.10;63.35;;;;;;;29.05;73.63;101131.97;4980355;28;66186;-37
2023/12/29 00:22:12;;;;;;;93.97;60.83;;;;;;;29.02;71.54;101126.13;4952081;28;69198;-36
2023/12/29 00:24:43;;;;;;;92.75;61.75;;;;;;;29.01;78.78;101135.25;4955552;28;66944;-36
2023/12/29 00:27:14;;;;;;;84.05;58.60;;;;;;;28.54;75.96;101045.13;4955224;28;70980;-37
2023/12/29 00:29:44;;;;;;;85.13;57.03;;;;;;;29.10;79.40;101144.88;4965268;28;65345;-37
2023/12/29 00:32:15;;;;;;;93.40;55.80;;;;;;;29.15;73.39;101147.81;4948251;28;70186;-36
2023/12/29 00:34:45;;;;;;;79.32;50.33;;;;;;;29.18;78.99;101153.63;4973390;28;66532;-38
2023/12/29 00:37:15;;;;;;;72.30;48.42;;;;;;;29.27;74.69;101170.50;4953946;28;70672;-36
2023/12/29 00:39:45;;;;;;;74.20;48.67;;;;;;;29.29;73.97;101165.72;4973519;28;66703;-36
2023/12/29 00:42:16;;;;;;;63.95;45.72;;;;;;;29.33;75.17;101166.97;4947885;28;68803;-36
2023/12/29 00:44:46;;;;;;;73.13;45.22;;;;;;;29.34;73.29;101162.44;4969461;28;66808;-36
2023/12/29 00:47:19;;;;;;;68.63;43.50;;;;;;;29.37;72.44;101162.84;4956548;28;70266;-36
2023/12/29 00:49:49;;;;;;;63.15;43.00;;;;;;;29.47;73.02;101175.13;4980925;28;65930;-37
2023/12/29 00:52:19;;;;;;;60.33;42.28;;;;;;;29.40;77.17;101173.25;4974498;28;69368;-36
2023/12/29 00:54:50;;;;;;;62.05;41.50;;;;;;;29.48;75.34;101174.13;4968043;28;65602;-36
2023/12/29 00:57:20;;;;;;;65.97;42.10;;;;;;;29.54;74.17;101179.53;4977308;28;70296;-36
2023/12/29 00:59:51;;;;;;;64.03;41.65;;;;;;;29.60;72.90;101183.28;4965786;28;66036;-36
2023/12/29 01:02:21;;;;;;;68.18;40.70;;;;;;;29.68;71.98;101179.59;4955850;28;69946;-37
2023/12/29 01:04:51;;;;;;;49.20;35.28;;;;;;;29.74;70.83;101179.59;4966998;28;66544;-37
2023/12/29 01:07:23;;;;;;;53.93;33.60;;;;;;;29.76;69.88;101190.22;4973576;28;69927;-37
2023/12/29 01:09:54;;;;;;;46.75;32.67;;;;;;;29.71;69.87;101165.66;4972205;28;66552;-37
2023/12/29 01:12:25;;;;;;;45.42;32.88;;;;;;;29.82;69.32;101186.69;4959533;28;69558;-37
2023/12/29 01:14:56;;;;;;;47.50;32.83;;;;;;;29.89;69.09;101192.91;4960784;28;66372;-37
2023/12/29 01:17:28;;;;;;;47.05;32.92;;;;;;;29.90;69.01;101185.66;4986027;28;70105;-37
2023/12/29 01:19:58;;;;;;;46.67;31.42;;;;;;;29.93;68.43;101193.34;4963502;28;66514;-37
2023/12/29 01:22:29;;;;;;;51.20;32.50;;;;;;;29.86;68.37;101181.69;4989073;28;69433;-37
2023/12/29 01:25:00;;;;;;;52.40;32.55;;;;;;;30.00;68.33;101202.28;4987462;28;66716;-37
2023/12/29 01:27:31;;;;;;;44.67;32.05;;;;;;;29.90;68.46;101182.97;4962894;28;70110;-37
2023/12/29 01:30:01;;;;;;;42.88;30.58;;;;;;;30.01;68.53;101202.09;4969995;28;66434;-37
2023/12/29 01:32:32;;;;;;;43.85;30.05;;;;;;;30.04;67.79;101206.28;4967356;28;69577;-37
2023/12/29 01:35:03;;;;;;;43.85;30.23;;;;;;;29.86;68.17;101181.69;4993080;28;66512;-38
2023/12/29 01:37:34;;;;;;;42.58;30.30;;;;;;;30.09;67.76;101217.31;4972857;28;70462;-38
2023/12/29 01:40:05;;;;;;;35.80;28.98;;;;;;;30.09;68.13;101220.00;4947119;28;65626;-38
2023/12/29 01:42:36;;;;;;;40.28;28.63;;;;;;;30.13;67.90;101220.41;4986847;28;70102;-39
2023/12/29 01:45:19;;;;;;;42.97;28.95;;;;;;;30.14;67.75;101222.91;4977183;28;66603;-37
2023/12/29 01:47:51;;;;;;;43.72;29.80;;;;;;;30.15;68.12;101232.72;4992376;28;70362;-38
2023/12/29 01:50:23;;;;;;;39.47;29.90;;;;;;;30.13;67.96;101226.66;4973858;28;66854;-38
2023/12/29 01:52:55;;;;;;;46.53;30.65;;;;;;;30.15;67.79;101240.81;4975901;28;70056;-38
2023/12/29 01:55:26;;;;;;;47.25;30.40;;;;;;;30.18;67.69;101240.41;4986801;28;66094;-38
2023/12/29 01:57:57;;;;;;;41.38;29.30;;;;;;;30.16;67.64;101233.53;4968060;28;70045;-38
2023/12/29 02:00:29;;;;;;;41.10;29.75;;;;;;;30.19;67.83;101242.06;4975251;28;66861;-38
2023/12/29 02:03:00;;;;;;;38.45;28.20;;;;;;;30.22;67.75;101238.97;4960958;28;68964;-37
2023/12/29 02:05:33;;;;;;;42.80;30.08;;;;;;;30.24;67.93;101239.59;4985567;28;66475;-37
2023/12/29 02:08:04;;;;;;;40.00;30.00;;;;;;;30.23;67.96;101237.94;4983084;28;70377;-39
2023/12/29 02:10:39;;;;;;;36.90;29.60;;;;;;;30.25;68.16;101235.00;4981704;28;65521;-37
2023/12/29 02:13:09;;;;;;;41.20;28.73;;;;;;;30.27;67.83;101238.34;4963299;28;70300;-38
2023/12/29 02:15:40;;;;;;;41.58;29.45;;;;;;;30.20;67.60;101222.09;4963490;28;66844;-39
2023/12/29 02:18:16;;;;;;;40.70;29.27;;;;;;;30.24;67.75;101228.78;4957870;28;69971;-38
2023/12/29 02:20:47;;;;;;;39.60;29.00;;;;;;;30.31;67.77;101238.75;4943543;28;66140;-37
2023/12/29 02:23:18;;;;;;;38.05;28.17;;;;;;;30.10;67.75;101205.44;4942956;28;69426;-38
2023/12/29 02:25:48;;;;;;;37.42;28.75;;;;;;;30.31;67.94;101233.34;4960362;28;65624;-38
2023/12/29 02:28:26;;;;;;;36.30;27.70;;;;;;;30.34;67.91;101232.94;4978779;28;70243;-39
2023/12/29 02:31:06;;;;;;;40.05;28.42;;;;;;;30.36;67.29;101231.69;4932694;28;65951;-39
2023/12/29 02:33:41;;;;;;;34.70;26.80;;;;;;;29.84;67.50;101144.06;4966353;28;69887;-38
2023/12/29 02:36:13;;;;;;;39.83;27.40;;;;;;;30.00;67.57;101173.38;4975826;28;65223;-37
2023/12/29 02:38:44;;;;;;;39.97;28.40;;;;;;;30.17;67.19;101195.47;4961064;28;70526;-38
2023/12/29 02:41:14;;;;;;;32.50;25.83;;;;;;;30.43;67.68;101226.28;4949667;28;66821;-38
2023/12/29 02:43:45;;;;;;;31.60;26.20;;;;;;;30.36;67.09;101218.16;4965306;28;69492;-37
2023/12/29 02:46:15;;;;;;;40.15;26.88;;;;;;;30.47;67.38;101232.94;4959958;28;66471;-38
2023/12/29 02:48:47;;;;;;;32.00;25.80;;;;;;;30.48;67.27;101234.63;4961176;28;70333;-38
2023/12/29 02:51:17;;;;;;;38.88;27.83;;;;;;;30.49;67.42;101225.44;4945153;28;65601;-37
2023/12/29 02:53:48;;;;;;;37.17;26.88;;;;;;;30.12;67.34;101159.25;4973598;28;70695;-39
2023/12/29 02:56:19;;;;;;;33.38;26.13;;;;;;;30.46;67.52;101207.75;4961038;28;66790;-38
2023/12/29 02:58:51;;;;;;;32.10;26.95;;;;;;;30.13;67.33;101156.31;4959604;28;70597;-38
2023/12/29 03:01:22;;;;;;;32.20;26.33;;;;;;;30.57;67.42;101222.53;4951239;28;66460;-38
2023/12/29 03:03:53;;;;;;;37.53;26.92;;;;;;;30.59;67.48;101231.28;4945725;28;69228;-38
2023/12/29 03:06:24;;;;;;;34.25;26.00;;;;;;;30.62;67.26;101220.03;4959199;28;66829;-38
2023/12/29 03:08:55;;;;;;;34.00;26.60;;;;;;;30.61;67.39;101212.91;4946864;28;70548;-38
2023/12/29 03:11:25;;;;;;;32.50;25.58;;;;;;;30.55;67.38;101197.53;4969615;28;66870;-38
2023/12/29 03:13:55;;;;;;;32.92;26.15;;;;;;;30.67;67.25;101211.25;4949666;28;70974;-38
2023/12/29 03:16:26;;;;;;;30.85;25.65;;;;;;;30.68;67.05;101202.94;4970054;28;66605;-38
2023/12/29 03:18:56;;;;;;;33.17;25.67;;;;;;;30.70;67.17;101203.56;4968742;28;70130;-37
2023/12/29 03:21:26;;;;;;;35.42;27.23;;;;;;;30.70;66.89;101190.00;4971341;28;66440;-38
2023/12/29 03:23:57;;;;;;;30.83;25.33;;;;;;;30.72;67.16;101190.63;4973242;28;70603;-38
2023/12/29 03:26:27;;;;;;;29.42;24.52;;;;;;;30.72;67.00;101187.91;4962079;28;66768;-39
2023/12/29 03:28:58;;;;;;;32.88;26.38;;;;;;;30.76;66.82;101185.63;4976350;28;70957;-38
2023/12/29 03:31:28;;;;;;;31.55;24.90;;;;;;;30.76;66.81;101180.22;4981569;28;65999;-39
2023/12/29 03:33:58;;;;;;;28.27;25.08;;;;;;;30.79;66.89;101170.84;4951487;28;70120;-39
2023/12/29 03:36:29;;;;;;;32.83;24.40;;;;;;;30.82;67.02;101170.44;4963975;28;66784;-39
2023/12/29 03:38:59;;;;;;;31.15;25.35;;;;;;;30.86;67.24;101171.66;4977314;28;69328;-37
2023/12/29 03:41:29;;;;;;;32.38;24.13;;;;;;;30.85;66.96;101154.56;4954314;28;66009;-37
2023/12/29 03:44:00;;;;;;;33.65;24.50;;;;;;;30.91;67.17;101158.31;4969590;28;70506;-38
2023/12/29 03:46:30;;;;;;;32.20;24.23;;;;;;;30.91;66.81;101148.31;4964312;28;66387;-38
2023/12/29 03:49:01;;;;;;;29.40;24.40;;;;;;;30.93;67.23;101150.81;4967612;28;69811;-38
2023/12/29 03:51:31;;;;;;;30.60;24.33;;;;;;;30.94;67.25;101144.34;4957081;28;66250;-38
2023/12/29 03:54:03;;;;;;;35.47;25.40;;;;;;;30.89;66.85;101119.75;4971662;28;70416;-39
2023/12/29 03:56:33;;;;;;;31.20;24.27;;;;;;;30.98;66.72;101126.63;4961646;28;66480;-38
2023/12/29 03:59:04;;;;;;;29.38;24.20;;;;;;;31.01;66.86;101120.78;4950620;28;70986;-39
2023/12/29 04:01:35;;;;;;;33.67;24.40;;;;;;;31.02;66.73;101127.00;4969113;28;66845;-39
2023/12/29 04:04:06;;;;;;;28.92;23.63;;;;;;;31.06;67.01;101131.75;4961087;28;70577;-38
2023/12/29 04:06:36;;;;;;;28.23;22.80;;;;;;;31.07;66.71;101128.03;4956741;28;66755;-38
2023/12/29 04:09:08;;;;;;;30.48;23.73;;;;;;;31.06;67.14;101118.22;4967408;28;69867;-38
2023/12/29 04:11:38;;;;;;;28.02;23.23;;;;;;;31.11;66.42;101121.13;4963107;28;66054;-40
2023/12/29 04:14:12;;;;;;;29.85;23.30;;;;;;;31.13;66.60;101108.19;4973703;28;70042;-39
2023/12/29 04:16:44;;;;;;;28.65;23.02;;;;;;;31.11;66.61;101104.84;4983884;28;66030;-39
2023/12/29 04:19:15;;;;;;;26.50;21.83;;;;;;;31.17;66.81;101108.56;4982926;28;70394;-38
2023/12/29 04:21:46;;;;;;;26.58;22.40;;;;;;;31.22;66.72;101094.38;4953268;28;65307;-38
2023/12/29 04:24:17;;;;;;;27.75;23.55;;;;;;;31.22;66.76;101083.53;4983813;28;69772;-38
2023/12/29 04:26:47;;;;;;;27.77;21.70;;;;;;;31.11;66.74;101066.91;4995539;28;66712;-39
2023/12/29 04:29:18;;;;;;;26.65;22.40;;;;;;;31.29;66.55;101084.34;4992421;28;70698;-39
2023/12/29 04:31:48;;;;;;;29.05;21.73;;;;;;;31.31;66.57;101087.66;4969029;28;66548;-38
2023/12/29 04:34:19;;;;;;;30.00;21.77;;;;;;;31.34;66.60;101079.06;4981650;28;69698;-38
2023/12/29 04:36:49;;;;;;;24.85;21.25;;;;;;;31.35;66.62;101072.63;4950880;28;66219;-38
2023/12/29 04:39:20;;;;;;;24.77;21.50;;;;;;;31.37;66.49;101075.97;4969244;28;70497;-38
2023/12/29 04:41:50;;;;;;;24.83;19.73;;;;;;;31.39;66.29;101069.28;4972567;28;65259;-38
2023/12/29 04:44:20;;;;;;;24.23;20.33;;;;;;;31.36;66.55;101058.03;4968532;28;70106;-39
2023/12/29 04:46:50;;;;;;;23.05;20.48;;;;;;;31.45;66.38;101058.59;4981635;28;65314;-37
2023/12/29 04:49:21;;;;;;;26.10;20.80;;;;;;;31.13;65.97;100999.81;4967579;28;71624;-40
2023/12/29 04:51:52;;;;;;;28.02;20.45;;;;;;;31.49;65.97;101052.53;4976030;28;67206;-38
2023/12/29 04:54:24;;;;;;;23.98;20.10;;;;;;;31.15;66.40;100995.00;4964045;28;69047;-38
2023/12/29 04:56:55;;;;;;;23.38;19.88;;;;;;;31.53;66.49;101048.31;4964765;28;66306;-39
2023/12/29 04:59:26;;;;;;;23.55;19.48;;;;;;;31.56;66.29;101037.03;4972489;28;70368;-38
2023/12/29 05:01:57;;;;;;;25.93;19.63;;;;;;;31.49;66.08;101019.19;4968747;28;65436;-39
2023/12/29 05:04:28;;;;;;;24.60;19.77;;;;;;;31.58;66.29;101032.22;4974319;28;70489;-38
2023/12/29 05:06:58;;;;;;;20.25;18.05;;;;;;;31.56;66.29;101011.78;4962086;28;66428;-39
2023/12/29 05:09:29;;;;;;;21.63;18.83;;;;;;;31.46;66.17;100990.63;4987390;28;70750;-39
2023/12/29 05:12:00;;;;;;;23.42;19.20;;;;;;;31.67;65.84;101011.06;4971410;28;66309;-40
2023/12/29 05:14:30;;;;;;;22.40;19.03;;;;;;;31.60;66.14;100994.03;4980411;28;68983;-38
2023/12/29 05:17:01;;;;;;;19.67;17.65;;;;;;;31.70;66.20;101005.19;4965469;28;66617;-40
2023/12/29 05:19:32;;;;;;;19.48;17.67;;;;;;;31.67;66.11;100983.94;4952607;28;70111;-41
2023/12/29 05:22:02;;;;;;;19.27;17.35;;;;;;;31.72;65.93;100980.56;4957218;28;65725;-39
2023/12/29 05:24:33;;;;;;;21.70;17.70;;;;;;;31.75;65.74;100980.13;4970477;28;70211;-38
2023/12/29 05:27:04;;;;;;;20.92;17.73;;;;;;;31.69;65.76;100964.75;4951393;28;66452;-39
2023/12/29 05:29:35;;;;;;;19.88;17.20;;;;;;;31.82;65.91;100980.91;4973568;28;69797;-38
2023/12/29 05:32:06;;;;;;;23.08;17.48;;;;;;;31.54;65.79;100927.16;4958445;28;66800;-38
2023/12/29 05:34:37;;;;;;;20.17;17.80;;;;;;;31.80;65.66;100962.13;4968785;28;69462;-40
2023/12/29 05:37:07;;;;;;;21.75;17.40;;;;;;;31.91;65.71;100968.72;4955860;28;65231;-40
2023/12/29 05:39:41;;;;;;;20.80;17.65;;;;;;;31.83;65.66;100950.81;4965994;28;71170;-40
2023/12/29 05:42:11;;;;;;;19.10;17.08;;;;;;;31.87;65.67;100956.63;4974114;28;66466;-38
2023/12/29 05:44:41;;;;;;;19.50;16.58;;;;;;;31.98;65.35;100969.50;4962471;28;70025;-39
2023/12/29 05:47:12;;;;;;;19.13;17.08;;;;;;;32.01;65.31;100957.34;4961265;28;65298;-39
2023/12/29 05:49:43;;;;;;;19.50;17.10;;;;;;;32.01;65.47;100957.34;4962869;28;69285;-39
2023/12/29 05:52:13;;;;;;;20.67;16.98;;;;;;;31.81;65.56;100914.13;4949955;28;66267;-39
2023/12/29 05:54:44;;;;;;;19.52;17.52;;;;;;;32.07;65.21;100952.88;4943106;28;69075;-39
2023/12/29 05:57:16;;;;;;;21.95;16.33;;;;;;;32.08;65.22;100949.13;4968282;28;65978;-39
2023/12/29 05:59:47;;;;;;;19.63;16.23;;;;;;;32.11;65.25;100945.97;4947245;28;70335;-39
2023/12/29 06:02:17;;;;;;;17.80;16.05;;;;;;;32.13;65.25;100941.16;4976805;28;65459;-38
2023/12/29 06:04:48;;;;;;;21.77;16.70;;;;;;;32.17;65.16;100934.19;4961705;28;70497;-39
2023/12/29 06:07:19;;;;;;;18.80;16.83;;;;;;;32.16;65.30;100927.13;4964921;28;66356;-39
2023/12/29 06:09:49;;;;;;;19.35;17.23;;;;;;;31.94;64.99;100889.59;4947605;28;70474;-38
2023/12/29 06:12:20;;;;;;;18.27;16.48;;;;;;;32.22;65.00;100920.78;4943963;28;66134;-38
2023/12/29 06:14:50;;;;;;;19.67;16.13;;;;;;;32.15;64.76;100903.72;4968407;28;70366;-39
2023/12/29 06:17:20;;;;;;;17.23;15.32;;;;;;;32.26;64.71;100921.97;4947944;28;66577;-40
2023/12/29 06:19:51;;;;;;;17.80;15.98;;;;;;;32.30;64.90;100916.91;4967985;28;69958;-39
2023/12/29 06:22:21;;;;;;;17.98;16.15;;;;;;;32.17;64.76;100891.59;4937034;28;65783;-39
2023/12/29 06:24:51;;;;;;;17.13;15.48;;;;;;;32.26;64.50;100890.25;4953248;28;70204;-39
2023/12/29 06:27:22;;;;;;;17.42;15.73;;;;;;;32.33;64.55;100901.00;4966572;28;65891;-38
2023/12/29 06:29:53;;;;;;;16.55;15.05;;;;;;;32.03;64.58;100850.22;4974818;28;71836;-39
2023/12/29 06:32:23;;;;;;;16.02;14.48;;;;;;;32.38;64.62;100898.41;4977549;28;66547;-40
2023/12/29 06:34:53;;;;;;;16.92;15.40;;;;;;;32.41;64.64;100892.53;4962875;28;70392;-38
2023/12/29 06:37:23;;;;;;;16.98;15.20;;;;;;;32.44;64.60;100885.81;4953490;28;66521;-38
2023/12/29 06:39:54;;;;;;;17.13;15.43;;;;;;;32.46;64.41;100887.28;4956478;28;69016;-38
2023/12/29 06:42:24;;;;;;;16.27;14.68;;;;;;;32.44;64.52;100878.50;4950063;28;66139;-38
2023/12/29 06:44:54;;;;;;;16.50;14.80;;;;;;;32.42;64.37;100861.59;4971578;28;70370;-40
2023/12/29 06:47:25;;;;;;;16.98;15.15;;;;;;;32.14;64.56;100812.53;4950560;28;66108;-40
2023/12/29 06:49:57;;;;;;;17.77;15.20;;;;;;;32.54;64.34;100874.41;4973498;28;70037;-38
2023/12/29 06:52:30;;;;;;;;;;;;;;;32.30;64.66;100868.88;4952026;28;66645;-38
2023/12/29 06:55:03;;;;;;;21.95;15.13;;;;;;;32.54;64.46;100858.97;4938794;28;70095;-39
2023/12/29 06:57:34;;;;;;;16.42;14.73;;;;;;;32.53;64.32;100845.59;4967286;28;66021;-38
2023/12/29 07:00:05;;;;;;;16.30;14.63;;;;;;;32.58;64.26;100853.88;4951769;28;68815;-39
2023/12/29 07:02:40;;;;;;;15.27;13.75;;;;;;;32.57;64.07;100846.78;4944058;28;66130;-39
2023/12/29 07:05:10;;;;;;;16.65;14.27;;;;;;;32.59;64.44;100840.06;4969232;28;70351;-39
2023/12/29 07:07:41;;;;;;;16.42;14.50;;;;;;;32.57;64.26;100833.22;4975036;28;65362;-39
2023/12/29 07:10:15;;;;;;;15.97;14.30;;;;;;;32.59;64.31;100831.91;4978310;28;68882;-39
2023/12/29 07:12:45;;;;;;;15.10;13.57;;;;;;;32.64;63.93;100823.91;4971202;28;66656;-38
2023/12/29 07:15:15;;;;;;;15.20;13.73;;;;;;;32.66;64.06;100824.50;4960243;28;70169;-38
2023/12/29 07:17:46;;;;;;;15.27;13.65;;;;;;;32.51;64.21;100793.41;4932603;28;65150;-42
2023/12/29 07:20:17;;;;;;;14.90;13.60;;;;;;;32.70;64.24;100820.25;4961646;28;70604;-39
2023/12/29 07:22:47;;;;;;;19.92;13.73;;;;;;;32.74;63.99;100803.50;4964834;28;66599;-40
2023/12/29 07:25:17;;;;;;;14.40;13.02;;;;;;;32.78;63.98;100805.50;4968477;28;69775;-38
2023/12/29 07:27:48;;;;;;;14.93;12.73;;;;;;;32.73;63.63;100797.22;4956505;28;66455;-38
2023/12/29 07:30:18;;;;;;;13.88;12.65;;;;;;;32.79;63.95;100800.88;4975475;28;69992;-38
2023/12/29 07:32:49;;;;;;;14.00;12.63;;;;;;;32.85;63.69;100800.78;4963132;28;65969;-38
2023/12/29 07:35:19;;;;;;;13.88;12.52;;;;;;;32.88;63.61;100799.50;4946322;28;70621;-38
2023/12/29 07:37:50;;;;;;;13.18;12.00;;;;;;;32.90;63.68;100803.63;4958416;28;66193;-37
2023/12/29 07:40:20;;;;;;;13.98;12.82;;;;;;;32.89;63.67;100801.94;4975032;28;70583;-37
2023/12/29 07:42:51;;;;;;;14.30;12.98;;;;;;;32.88;63.65;100794.88;4967155;28;66912;-38
2023/12/29 07:45:21;;;;;;;13.93;11.98;;;;;;;32.88;63.70;100777.75;4968497;28;70324;-37
2023/12/29 07:47:52;;;;;;;13.77;12.57;;;;;;;32.90;63.43;100783.75;4981831;28;65853;-38
2023/12/29 07:50:22;;;;;;;13.23;12.15;;;;;;;32.99;63.32;100786.94;4956695;28;69631;-38
2023/12/29 07:52:52;;;;;;;13.43;12.20;;;;;;;33.01;63.61;100782.13;4947367;28;64721;-38
2023/12/29 07:55:22;;;;;;;13.80;12.50;;;;;;;33.01;63.35;100773.97;4966329;28;70490;-39
2023/12/29 07:57:53;;;;;;;14.95;13.35;;;;;;;33.03;63.30;100766.44;4949709;28;66624;-38
2023/12/29 08:00:24;;;;;;;14.55;13.23;;;;;;;33.05;63.37;100778.72;4953210;28;69872;-38
2023/12/29 08:02:54;;;;;;;14.27;13.07;;;;;;;33.06;63.39;100790.41;4964833;28;65432;-39
2023/12/29 08:05:25;;;;;;;14.80;13.30;;;;;;;33.09;62.96;100785.31;4957176;28;69287;-47
2023/12/29 08:07:56;;;;;;;16.40;14.13;;;;;;;33.10;63.00;100775.28;4968756;28;66137;-38
2023/12/29 08:10:26;;;;;;;14.60;13.30;;;;;;;33.11;63.46;100776.94;4967542;28;70615;-38
2023/12/29 08:12:57;;;;;;;15.73;14.35;;;;;;;33.13;62.97;100782.97;4956785;28;66055;-38
2023/12/29 08:15:27;;;;;;;16.95;15.10;;;;;;;33.16;63.21;100790.66;4976695;28;69930;-37
2023/12/29 08:17:57;;;;;;;15.73;14.30;;;;;;;33.15;63.19;100783.53;4961069;28;66549;-37
2023/12/29 08:20:28;;;;;;;16.95;14.90;;;;;;;33.14;63.23;100776.47;4972538;28;70221;-37
2023/12/29 08:22:58;;;;;;;17.13;14.77;;;;;;;33.17;63.39;100786.84;4963522;28;65318;-37
2023/12/29 08:25:29;;;;;;;16.83;15.13;;;;;;;33.21;63.05;100787.19;4959394;28;69935;-38
2023/12/29 08:28:00;;;;;;;16.13;14.60;;;;;;;33.19;63.18;100790.16;4970232;28;67062;-37
2023/12/29 08:30:30;;;;;;;17.87;15.80;;;;;;;33.15;62.96;100780.81;4967247;28;69952;-39
2023/12/29 08:33:01;;;;;;;17.33;15.00;;;;;;;33.23;62.99;100791.31;4962398;28;66092;-37
2023/12/29 08:35:32;;;;;;;15.70;14.15;;;;;;;33.18;63.17;100788.50;4961275;28;70791;-40
2023/12/29 08:38:02;;;;;;;16.77;14.52;;;;;;;33.25;63.33;100789.22;4963780;28;65637;-37
2023/12/29 08:40:32;;;;;;;18.63;15.32;;;;;;;33.26;63.23;100790.84;4951696;28;69370;-37
2023/12/29 08:43:02;;;;;;;16.52;14.60;;;;;;;33.27;63.17;100792.53;4962967;28;66714;-38
2023/12/29 08:45:33;;;;;;;19.52;15.10;;;;;;;33.22;63.12;100789.69;4945100;28;69078;-38
2023/12/29 08:48:03;;;;;;;17.58;14.93;;;;;;;33.26;63.24;100796.28;4965999;28;65643;-37
2023/12/29 08:50:34;;;;;;;18.13;14.90;;;;;;;33.28;63.48;100801.50;4964611;28;70780;-39
2023/12/29 08:53:04;;;;;;;15.68;14.05;;;;;;;33.27;63.14;100797.97;4954333;28;66205;-38
2023/12/29 08:55:35;;;;;;;16.83;13.50;;;;;;;33.32;63.35;100802.66;4965369;28;70467;-39
2023/12/29 08:58:05;;;;;;;22.75;13.88;;;;;;;33.20;63.63;100786.38;4947117;28;66720;-37
2023/12/29 09:00:36;;;;;;;21.30;13.63;;;;;;;33.27;63.30;100803.41;4934244;28;69223;-38
2023/12/29 09:03:07;;;;;;;13.68;12.40;;;;;;;33.33;63.25;100805.16;4964020;28;66575;-37
2023/12/29 09:05:38;;;;;;;14.48;12.98;;;;;;;33.35;63.51;100816.63;4955059;28;69522;-37
2023/12/29 09:08:09;;;;;;;16.40;12.27;;;;;;;33.35;63.25;100813.91;4946509;28;66777;-38
2023/12/29 09:10:39;;;;;;;13.35;12.20;;;;;;;33.37;63.53;100811.75;4938525;28;70630;-37
2023/12/29 09:13:10;;;;;;;14.05;12.55;;;;;;;33.36;63.37;100807.38;4971790;28;66680;-37
2023/12/29 09:15:40;;;;;;;14.80;12.43;;;;;;;33.37;63.30;100800.06;4961478;28;70102;-38
2023/12/29 09:18:10;;;;;;;12.88;11.68;;;;;;;33.38;63.79;100807.97;4945270;28;66808;-37
2023/12/29 09:20:41;;;;;;;14.68;11.77;;;;;;;32.83;66.36;100786.59;4944082;28;69942;-38
2023/12/29 09:23:12;;;;;;;14.90;11.57;;;;;;;32.85;67.03;100811.66;4969378;28;67250;-37
2023/12/29 09:25:42;;;;;;;12.35;11.15;;;;;;;32.73;67.46;100818.94;4969244;28;70256;-38
2023/12/29 09:28:12;;;;;;;16.50;11.63;;;;;;;32.67;68.52;100815.28;4975505;28;66014;-37
2023/12/29 09:30:43;;;;;;;12.98;11.07;;;;;;;32.70;67.61;100814.00;4959132;28;70313;-37
2023/12/29 09:33:13;;;;;;;11.88;10.70;;;;;;;32.58;68.98;100822.13;4986353;28;65623;-37
2023/12/29 09:35:44;;;;;;;12.48;11.20;;;;;;;32.80;66.81;100827.81;4960457;28;69850;-38
2023/12/29 09:38:14;;;;;;;11.48;10.57;;;;;;;32.97;65.60;100822.53;4948461;28;65941;-38
2023/12/29 09:40:45;;;;;;;12.35;10.75;;;;;;;33.07;65.59;100830.09;4969674;28;70558;-38
2023/12/29 09:43:16;;;;;;;13.35;11.30;;;;;;;33.11;65.43;100826.69;4961498;28;66304;-38
2023/12/29 09:45:47;;;;;;;12.55;10.25;;;;;;;33.17;65.16;100835.78;4958156;28;70431;-37
2023/12/29 09:48:26;;;;;;;12.32;11.13;;;;;;;32.68;65.28;100759.06;4944086;28;66002;-37
2023/12/29 09:50:57;;;;;;;10.93;9.85;;;;;;;33.21;65.03;100830.69;4966426;28;69768;-38
2023/12/29 09:53:28;;;;;;;11.65;10.65;;;;;;;33.22;65.12;100838.63;4960251;28;66706;-37
2023/12/29 09:56:01;;;;;;;12.45;11.10;;;;;;;33.04;64.89;100812.41;4971048;28;69150;-38
2023/12/29 09:58:32;;;;;;;12.38;9.70;;;;;;;33.27;65.20;100841.44;4945268;28;66302;-37
2023/12/29 10:01:05;;;;;;;14.68;11.07;;;;;;;33.26;64.86;100834.34;4970812;28;70283;-38
2023/12/29 10:03:36;;;;;;;11.07;10.13;;;;;;;32.94;65.40;100793.09;4968217;28;66548;-39
2023/12/29 10:06:10;;;;;;;11.02;9.52;;;;;;;33.17;65.57;100822.19;4949547;28;70584;-38
2023/12/29 10:08:46;;;;;;;11.15;9.63;;;;;;;32.80;65.90;100776.22;4974523;28;66868;-38
2023/12/29 10:11:22;;;;;;;11.45;9.77;;;;;;;33.27;65.75;100851.50;4948406;28;70413;-37
2023/12/29 10:13:55;;;;;;;13.10;9.65;;;;;;;33.30;65.09;100856.47;4982904;28;66588;-37
2023/12/29 10:16:29;;;;;;;10.15;9.15;;;;;;;33.04;65.81;100827.84;4963595;28;70139;-37
2023/12/29 10:19:39;;;;;;;17.33;10.70;;;;;;;32.78;69.82;100859.81;4965033;28;66331;-38
2023/12/29 10:23:02;;;;;;;11.43;9.98;;;;;;;32.57;70.84;100858.50;4971514;28;70629;-36
2023/12/29 10:25:32;;;;;;;;;;;;;;;32.35;71.99;100860.88;4959893;28;65870;-37
2023/12/29 10:28:03;;;;;;;11.90;9.23;;;;;;;32.53;70.83;100867.34;4941569;28;68829;-38
2023/12/29 10:30:33;;;;;;;12.23;9.88;;;;;;;32.51;71.47;100875.69;4976572;28;66229;-36
2023/12/29 10:33:05;;;;;;;12.55;9.73;;;;;;;32.45;71.56;100877.41;4970467;28;70607;-37
2023/12/29 10:35:39;;;;;;;9.52;8.18;;;;;;;32.17;71.54;100829.16;4958293;28;66040;-38
2023/12/29 10:38:12;;;;;;;12.48;8.68;;;;;;;32.52;70.08;100890.94;4975286;28;69969;-37
2023/12/29 10:40:43;;;;;;;17.40;9.13;;;;;;;32.43;72.24;100884.13;4972089;28;65608;-38
2023/12/29 10:43:21;;;;;;;16.95;8.45;;;;;;;32.37;71.38;100885.88;4968266;28;70330;-37
2023/12/29 10:46:09;;;;;;;12.00;9.00;;;;;;;32.36;72.87;100895.09;4975174;28;66690;-36
2023/12/29 10:48:40;;;;;;;15.07;9.65;;;;;;;32.44;71.28;100896.66;4977344;28;69194;-38
2023/12/29 10:51:10;;;;;;;10.88;8.55;;;;;;;32.39;72.50;100900.06;4973670;28;66609;-38
2023/12/29 10:53:42;;;;;;;10.80;8.57;;;;;;;32.46;70.82;100910.88;4967530;28;70238;-37
2023/12/29 10:56:22;;;;;;;9.10;7.38;;;;;;;32.43;72.49;100928.44;4935890;28;66385;-37
2023/12/29 10:59:05;;;;;;;10.40;8.50;;;;;;;32.31;72.81;100919.38;4969390;28;70720;-38
2023/12/29 11:01:36;;;;;;;8.80;8.00;;;;;;;32.46;71.14;100913.59;4975849;28;66570;-38
2023/12/29 11:04:09;;;;;;;12.23;8.82;;;;;;;32.41;71.36;100911.53;4949388;28;69339;-37
2023/12/29 11:06:44;;;;;;;31.52;14.38;;;;;;;32.39;73.05;100921.78;4962606;28;65819;-37
2023/12/29 11:09:27;;;;;;;51.83;16.20;;;;;;;32.36;73.15;100916.81;4939876;28;68915;-37
2023/12/29 11:12:02;;;;;;;50.55;16.63;;;;;;;32.38;73.45;100914.72;4967528;28;66108;-37
2023/12/29 11:14:33;;;;;;;44.15;17.25;;;;;;;32.43;72.78;100939.28;4951341;28;69938;-38
2023/12/29 11:17:04;;;;;;;41.72;17.08;;;;;;;32.34;74.00;100951.50;4963190;28;67004;-37
2023/12/29 11:19:35;;;;;;;47.70;16.60;;;;;;;32.33;73.01;100955.28;4971093;28;71425;-37
2023/12/29 11:22:09;;;;;;;40.53;16.25;;;;;;;32.30;74.92;100957.63;4963992;28;65385;-37
2023/12/29 11:24:39;;;;;;;36.05;15.10;;;;;;;32.35;75.66;100961.31;4974859;28;70471;-38
2023/12/29 11:27:12;;;;;;;36.55;16.00;;;;;;;32.36;74.21;100957.53;4971057;28;66573;-37
2023/12/29 11:29:43;;;;;;;41.60;15.33;;;;;;;32.33;74.75;100954.47;4955977;28;71293;-36